Randolph Air Force Base
KRND : now visible

Airfield :











YOU CAN JOIN US ON...

 
LOGIN :

Register | Disclaimer

   EN    FR    IT 

 









Legend :    VFR   Marginal VFR   IFR   Intensive IFR   Very Intensive IFR
Visi :
Ceiling :
>= 8 km
>= 3000ft
5 to 8 km
1000 to 3000 ft
1500m to 5 km
500 to 1000 ft
800 to 1500m
200 to 500 ft
< 800m
< 200 ft
Symbols :   Thunderstorms  Fog  Heavy snow  Heavy precipitations  Wind > 20 kt






- Airport Elevation : 761 ft


KRND - Randolph Air Force Base

CURRENT METAR :
  • 100356Z AUTO 15013KT 10SM CLR 28/24 A2994 RMK AO2 SLP129 T02830236 $

EXPIRED METARs :
  • 100256Z AUTO 14015KT 10SM CLR 30/23 A2990 RMK AO2 SLP116 T02950234 52018 $
  • 100156Z AUTO 15011KT 10SM CLR 31/23 A2988 RMK AO2 SLP109 T03100231 $

TAF AMD TAF KRND
Valid from the 09 at 22:00 until the 10 at 22:00 UTC


092255Z 0922/1022 16012G18KT 9999 SCT020 BKN030 QNH2983INS
BECMG 1004/1005 15009KT 9999 SCT010 QNH2993INS
BECMG 1010/1011 17006KT 8000 BR BKN010 QNH2995INS
BECMG 1014/1015 17012KT 9999 NSW BKN015 QNH3000INS
BECMG 1015/1016 18010G18KT 9999 SCT020 QNH2991INS TX37/0922Z TN24/1012Z LAST NO AMDS AFT 0922 NEXT 1010
KZHU FIR / North America



MET'MAP, your aeronautical weather chart ! - Copyright ORBIFLY December 2007 - Disclaimer

ORBIFLY MET'MAP TEAM :

Programming & Development : Alexandra Zaïnal
Concept & original design : Baudouin d'Aumeries
Assistance for programming : Marc-Olivier Méhu
Technical & hardware support : Manuel Goepfert

Contact : metmap@orbifly.com




SOURCES & CREDITS :

   NOAA       Earth
Advisory